Bagdad, Florida
Current Conditions -  °F | °C
As of 9:46 AM on Friday 19 Dec 2014 (Local Time) from KNDZ Reporting Station
Heavy Rain Heavy Rain  
Wind Chill:   Ceiling: 3200
Heat Index:   Visibility: 1.5mi
Dew Point:   Wind: 3mph
Humidity: 86%   Direction: 240°WSW
Pressure: 30.24"   Gusts: NA
Location:  30.6°N, 87.04°W
Report Text: KNDZ 191546Z 24003KT 1 1/2SM +RA BR BKN032 BKN055 OVC070 09/07 A3024 RMK AO2 P0008 T00940072
Loading
Personal Weather Stations






























Interactive Weather Map New forecast layout! Learn more

10-Day Weather Forecast

Advertisements
Track Severe Weather on mobile